sensor_id;sensor_type;location;lat;lon;timestamp;P1;durP1;ratioP1;P2;durP2;ratioP2
17091;SDS011;8661;45.700;4.880;2023-06-10T00:02:04;0.10;;;0.10;;
17091;SDS011;8661;45.700;4.880;2023-06-10T00:04:32;0.10;;;0.10;;
17091;SDS011;8661;45.700;4.880;2023-06-10T00:06:59;0.40;;;0.40;;
17091;SDS011;8661;45.700;4.880;2023-06-10T00:09:26;0.43;;;0.27;;
17091;SDS011;8661;45.700;4.880;2023-06-10T00:11:56;0.00;;;0.00;;
17091;SDS011;8661;45.700;4.880;2023-06-10T00:14:27;0.00;;;0.00;;
17091;SDS011;8661;45.700;4.880;2023-06-10T00:16:53;0.07;;;0.07;;
17091;SDS011;8661;45.700;4.880;2023-06-10T00:19:22;0.10;;;0.10;;
17091;SDS011;8661;45.700;4.880;2023-06-10T00:21:50;0.10;;;0.10;;
17091;SDS011;8661;45.700;4.880;2023-06-10T00:24:18;0.10;;;0.10;;
17091;SDS011;8661;45.700;4.880;2023-06-10T00:26:45;0.00;;;0.00;;
17091;SDS011;8661;45.700;4.880;2023-06-10T00:29:11;0.40;;;0.20;;
17091;SDS011;8661;45.700;4.880;2023-06-10T00:31:40;0.00;;;0.00;;
17091;SDS011;8661;45.700;4.880;2023-06-10T00:34:07;0.00;;;0.00;;
17091;SDS011;8661;45.700;4.880;2023-06-10T00:36:34;0.03;;;0.03;;
17091;SDS011;8661;45.700;4.880;2023-06-10T00:39:01;0.03;;;0.03;;
17091;SDS011;8661;45.700;4.880;2023-06-10T00:41:29;0.10;;;0.10;;
17091;SDS011;8661;45.700;4.880;2023-06-10T00:43:56;0.07;;;0.07;;
17091;SDS011;8661;45.700;4.880;2023-06-10T00:46:23;0.10;;;0.10;;
17091;SDS011;8661;45.700;4.880;2023-06-10T00:48:54;0.10;;;0.10;;
17091;SDS011;8661;45.700;4.880;2023-06-10T00:51:21;0.10;;;0.10;;
17091;SDS011;8661;45.700;4.880;2023-06-10T00:53:48;0.00;;;0.00;;
17091;SDS011;8661;45.700;4.880;2023-06-10T00:56:15;0.10;;;0.10;;
17091;SDS011;8661;45.700;4.880;2023-06-10T00:58:42;0.00;;;0.00;;
17091;SDS011;8661;45.700;4.880;2023-06-10T01:01:09;0.10;;;0.10;;
17091;SDS011;8661;45.700;4.880;2023-06-10T01:03:37;0.00;;;0.00;;
17091;SDS011;8661;45.700;4.880;2023-06-10T01:06:09;0.00;;;0.00;;
17091;SDS011;8661;45.700;4.880;2023-06-10T01:08:46;0.00;;;0.00;;
17091;SDS011;8661;45.700;4.880;2023-06-10T01:11:19;0.00;;;0.00;;
17091;SDS011;8661;45.700;4.880;2023-06-10T01:13:50;0.00;;;0.00;;
17091;SDS011;8661;45.700;4.880;2023-06-10T01:16:17;0.10;;;0.10;;
17091;SDS011;8661;45.700;4.880;2023-06-10T01:18:45;0.10;;;0.10;;
17091;SDS011;8661;45.700;4.880;2023-06-10T01:21:14;0.00;;;0.00;;
17091;SDS011;8661;45.700;4.880;2023-06-10T01:23:46;0.00;;;0.00;;
17091;SDS011;8661;45.700;4.880;2023-06-10T01:26:13;0.10;;;0.10;;
17091;SDS011;8661;45.700;4.880;2023-06-10T01:28:43;0.10;;;0.10;;
17091;SDS011;8661;45.700;4.880;2023-06-10T01:31:16;0.10;;;0.10;;
17091;SDS011;8661;45.700;4.880;2023-06-10T01:33:49;0.00;;;0.00;;
17091;SDS011;8661;45.700;4.880;2023-06-10T01:36:19;0.10;;;0.10;;
17091;SDS011;8661;45.700;4.880;2023-06-10T01:38:49;0.00;;;0.00;;
17091;SDS011;8661;45.700;4.880;2023-06-10T01:41:18;0.10;;;0.10;;
17091;SDS011;8661;45.700;4.880;2023-06-10T01:43:47;0.10;;;0.10;;
17091;SDS011;8661;45.700;4.880;2023-06-10T01:46:14;0.00;;;0.00;;
17091;SDS011;8661;45.700;4.880;2023-06-10T01:48:44;0.00;;;0.00;;
17091;SDS011;8661;45.700;4.880;2023-06-10T01:51:11;0.10;;;0.10;;
17091;SDS011;8661;45.700;4.880;2023-06-10T01:53:39;0.13;;;0.13;;
17091;SDS011;8661;45.700;4.880;2023-06-10T01:56:06;0.00;;;0.00;;
17091;SDS011;8661;45.700;4.880;2023-06-10T01:58:33;0.10;;;0.10;;
17091;SDS011;8661;45.700;4.880;2023-06-10T02:01:00;0.00;;;0.00;;
17091;SDS011;8661;45.700;4.880;2023-06-10T02:03:27;0.20;;;0.20;;
17091;SDS011;8661;45.700;4.880;2023-06-10T02:05:54;0.07;;;0.07;;
17091;SDS011;8661;45.700;4.880;2023-06-10T02:08:21;0.10;;;0.10;;
17091;SDS011;8661;45.700;4.880;2023-06-10T02:10:49;0.10;;;0.10;;
17091;SDS011;8661;45.700;4.880;2023-06-10T02:13:16;0.10;;;0.10;;
17091;SDS011;8661;45.700;4.880;2023-06-10T02:15:42;0.10;;;0.10;;
17091;SDS011;8661;45.700;4.880;2023-06-10T02:18:09;0.20;;;0.20;;
17091;SDS011;8661;45.700;4.880;2023-06-10T02:20:36;0.10;;;0.10;;
17091;SDS011;8661;45.700;4.880;2023-06-10T02:23:03;0.00;;;0.00;;
17091;SDS011;8661;45.700;4.880;2023-06-10T02:25:30;0.10;;;0.10;;
17091;SDS011;8661;45.700;4.880;2023-06-10T02:27:59;0.00;;;0.00;;
17091;SDS011;8661;45.700;4.880;2023-06-10T02:30:26;0.13;;;0.13;;
17091;SDS011;8661;45.700;4.880;2023-06-10T02:32:52;0.13;;;0.13;;
17091;SDS011;8661;45.700;4.880;2023-06-10T02:35:21;0.10;;;0.10;;
17091;SDS011;8661;45.700;4.880;2023-06-10T02:37:49;0.20;;;0.20;;
17091;SDS011;8661;45.700;4.880;2023-06-10T02:40:16;0.13;;;0.13;;
17091;SDS011;8661;45.700;4.880;2023-06-10T02:42:43;0.00;;;0.00;;
17091;SDS011;8661;45.700;4.880;2023-06-10T02:45:11;0.10;;;0.10;;
17091;SDS011;8661;45.700;4.880;2023-06-10T02:47:38;0.10;;;0.10;;
17091;SDS011;8661;45.700;4.880;2023-06-10T02:50:05;0.10;;;0.10;;
17091;SDS011;8661;45.700;4.880;2023-06-10T02:52:33;0.00;;;0.00;;
17091;SDS011;8661;45.700;4.880;2023-06-10T02:55:00;0.10;;;0.10;;
17091;SDS011;8661;45.700;4.880;2023-06-10T02:57:26;0.00;;;0.00;;
17091;SDS011;8661;45.700;4.880;2023-06-10T02:59:53;0.00;;;0.00;;
17091;SDS011;8661;45.700;4.880;2023-06-10T03:02:21;0.00;;;0.00;;
17091;SDS011;8661;45.700;4.880;2023-06-10T03:04:53;0.10;;;0.10;;
17091;SDS011;8661;45.700;4.880;2023-06-10T03:07:20;1.03;;;0.83;;
17091;SDS011;8661;45.700;4.880;2023-06-10T03:09:48;7.63;;;3.80;;
17091;SDS011;8661;45.700;4.880;2023-06-10T03:12:15;8.87;;;3.53;;
17091;SDS011;8661;45.700;4.880;2023-06-10T03:14:42;8.90;;;3.90;;
17091;SDS011;8661;45.700;4.880;2023-06-10T03:17:09;10.43;;;3.90;;
17091;SDS011;8661;45.700;4.880;2023-06-10T03:19:37;6.07;;;3.83;;
17091;SDS011;8661;45.700;4.880;2023-06-10T03:22:08;7.10;;;3.60;;
17091;SDS011;8661;45.700;4.880;2023-06-10T03:24:35;9.17;;;3.60;;
17091;SDS011;8661;45.700;4.880;2023-06-10T03:27:05;6.27;;;3.80;;
17091;SDS011;8661;45.700;4.880;2023-06-10T03:29:32;11.80;;;4.23;;
17091;SDS011;8661;45.700;4.880;2023-06-10T03:31:59;5.60;;;3.63;;
17091;SDS011;8661;45.700;4.880;2023-06-10T03:34:26;6.23;;;4.20;;
17091;SDS011;8661;45.700;4.880;2023-06-10T03:36:56;6.20;;;3.87;;
17091;SDS011;8661;45.700;4.880;2023-06-10T03:39:23;8.83;;;4.63;;
17091;SDS011;8661;45.700;4.880;2023-06-10T03:41:50;9.50;;;4.50;;
17091;SDS011;8661;45.700;4.880;2023-06-10T03:44:17;9.67;;;4.27;;
17091;SDS011;8661;45.700;4.880;2023-06-10T03:46:44;9.10;;;4.33;;
17091;SDS011;8661;45.700;4.880;2023-06-10T03:49:10;6.63;;;3.80;;
17091;SDS011;8661;45.700;4.880;2023-06-10T03:51:37;7.40;;;3.57;;
17091;SDS011;8661;45.700;4.880;2023-06-10T03:54:06;7.57;;;3.93;;
17091;SDS011;8661;45.700;4.880;2023-06-10T03:56:33;5.47;;;4.00;;
17091;SDS011;8661;45.700;4.880;2023-06-10T03:59:00;12.17;;;4.43;;
17091;SDS011;8661;45.700;4.880;2023-06-10T04:01:26;9.10;;;4.27;;
17091;SDS011;8661;45.700;4.880;2023-06-10T04:03:54;10.10;;;4.37;;
17091;SDS011;8661;45.700;4.880;2023-06-10T04:06:20;8.57;;;4.33;;
17091;SDS011;8661;45.700;4.880;2023-06-10T04:08:50;7.33;;;4.53;;
17091;SDS011;8661;45.700;4.880;2023-06-10T04:11:18;7.50;;;4.80;;
17091;SDS011;8661;45.700;4.880;2023-06-10T04:13:45;6.57;;;4.67;;
17091;SDS011;8661;45.700;4.880;2023-06-10T04:16:12;6.23;;;4.40;;
17091;SDS011;8661;45.700;4.880;2023-06-10T04:18:39;5.60;;;4.30;;
17091;SDS011;8661;45.700;4.880;2023-06-10T04:21:07;8.83;;;4.97;;
17091;SDS011;8661;45.700;4.880;2023-06-10T04:23:34;7.80;;;4.90;;
17091;SDS011;8661;45.700;4.880;2023-06-10T04:26:01;7.03;;;4.80;;
17091;SDS011;8661;45.700;4.880;2023-06-10T04:28:32;7.77;;;4.97;;
17091;SDS011;8661;45.700;4.880;2023-06-10T04:30:58;7.77;;;4.83;;
17091;SDS011;8661;45.700;4.880;2023-06-10T04:33:25;13.07;;;5.37;;
17091;SDS011;8661;45.700;4.880;2023-06-10T04:35:53;9.63;;;5.13;;
17091;SDS011;8661;45.700;4.880;2023-06-10T04:38:20;8.20;;;5.20;;
17091;SDS011;8661;45.700;4.880;2023-06-10T04:40:47;13.57;;;5.30;;
17091;SDS011;8661;45.700;4.880;2023-06-10T04:43:14;11.40;;;6.30;;
17091;SDS011;8661;45.700;4.880;2023-06-10T04:45:42;10.53;;;6.30;;
17091;SDS011;8661;45.700;4.880;2023-06-10T04:48:09;14.03;;;7.33;;
17091;SDS011;8661;45.700;4.880;2023-06-10T04:50:37;11.30;;;7.87;;
17091;SDS011;8661;45.700;4.880;2023-06-10T04:53:03;8.90;;;6.63;;
17091;SDS011;8661;45.700;4.880;2023-06-10T04:55:31;14.67;;;7.13;;
17091;SDS011;8661;45.700;4.880;2023-06-10T04:57:58;17.13;;;7.90;;
17091;SDS011;8661;45.700;4.880;2023-06-10T05:00:25;10.00;;;7.80;;
17091;SDS011;8661;45.700;4.880;2023-06-10T05:02:53;10.77;;;7.13;;
17091;SDS011;8661;45.700;4.880;2023-06-10T05:05:21;12.20;;;7.23;;
17091;SDS011;8661;45.700;4.880;2023-06-10T05:07:48;13.07;;;7.43;;
17091;SDS011;8661;45.700;4.880;2023-06-10T05:10:15;11.77;;;7.77;;
17091;SDS011;8661;45.700;4.880;2023-06-10T05:12:42;13.43;;;7.17;;
17091;SDS011;8661;45.700;4.880;2023-06-10T05:15:09;11.40;;;7.70;;
17091;SDS011;8661;45.700;4.880;2023-06-10T05:17:36;12.10;;;7.53;;
17091;SDS011;8661;45.700;4.880;2023-06-10T05:20:05;11.60;;;8.23;;
17091;SDS011;8661;45.700;4.880;2023-06-10T05:22:33;11.40;;;7.93;;
17091;SDS011;8661;45.700;4.880;2023-06-10T05:25:00;11.87;;;8.50;;
17091;SDS011;8661;45.700;4.880;2023-06-10T05:27:27;10.47;;;8.07;;
17091;SDS011;8661;45.700;4.880;2023-06-10T05:29:54;14.23;;;8.43;;
17091;SDS011;8661;45.700;4.880;2023-06-10T05:32:21;14.40;;;8.87;;
17091;SDS011;8661;45.700;4.880;2023-06-10T05:34:48;17.73;;;8.93;;
17091;SDS011;8661;45.700;4.880;2023-06-10T05:37:16;11.73;;;8.63;;
17091;SDS011;8661;45.700;4.880;2023-06-10T05:39:43;14.87;;;8.70;;
17091;SDS011;8661;45.700;4.880;2023-06-10T05:42:10;16.33;;;9.40;;
17091;SDS011;8661;45.700;4.880;2023-06-10T05:44:37;14.10;;;8.97;;
17091;SDS011;8661;45.700;4.880;2023-06-10T05:47:04;14.40;;;8.80;;
17091;SDS011;8661;45.700;4.880;2023-06-10T05:49:31;10.83;;;8.33;;
17091;SDS011;8661;45.700;4.880;2023-06-10T05:51:58;15.60;;;8.77;;
17091;SDS011;8661;45.700;4.880;2023-06-10T05:54:26;11.83;;;7.97;;
17091;SDS011;8661;45.700;4.880;2023-06-10T05:56:53;12.47;;;8.47;;
17091;SDS011;8661;45.700;4.880;2023-06-10T05:59:20;8.87;;;7.63;;
17091;SDS011;8661;45.700;4.880;2023-06-10T06:01:48;10.10;;;7.40;;
17091;SDS011;8661;45.700;4.880;2023-06-10T06:04:15;9.33;;;6.57;;
17091;SDS011;8661;45.700;4.880;2023-06-10T06:06:42;11.50;;;7.33;;
17091;SDS011;8661;45.700;4.880;2023-06-10T06:09:09;8.73;;;7.30;;
17091;SDS011;8661;45.700;4.880;2023-06-10T06:11:37;12.33;;;8.07;;
17091;SDS011;8661;45.700;4.880;2023-06-10T06:14:04;10.67;;;6.57;;
17091;SDS011;8661;45.700;4.880;2023-06-10T06:16:31;9.27;;;5.83;;
17091;SDS011;8661;45.700;4.880;2023-06-10T06:18:58;10.43;;;6.30;;
17091;SDS011;8661;45.700;4.880;2023-06-10T06:21:24;11.77;;;6.43;;
17091;SDS011;8661;45.700;4.880;2023-06-10T06:23:51;8.07;;;5.73;;
17091;SDS011;8661;45.700;4.880;2023-06-10T06:26:18;9.07;;;6.53;;
17091;SDS011;8661;45.700;4.880;2023-06-10T06:28:47;7.50;;;5.90;;
17091;SDS011;8661;45.700;4.880;2023-06-10T06:31:13;12.53;;;6.37;;
17091;SDS011;8661;45.700;4.880;2023-06-10T06:33:40;10.87;;;5.93;;
17091;SDS011;8661;45.700;4.880;2023-06-10T06:36:07;7.90;;;5.93;;
17091;SDS011;8661;45.700;4.880;2023-06-10T06:38:34;10.83;;;6.93;;
17091;SDS011;8661;45.700;4.880;2023-06-10T06:41:01;10.37;;;6.20;;
17091;SDS011;8661;45.700;4.880;2023-06-10T06:43:30;7.73;;;5.93;;
17091;SDS011;8661;45.700;4.880;2023-06-10T06:45:59;7.63;;;6.10;;
17091;SDS011;8661;45.700;4.880;2023-06-10T06:48:26;9.90;;;6.80;;
17091;SDS011;8661;45.700;4.880;2023-06-10T06:50:53;7.60;;;6.87;;
17091;SDS011;8661;45.700;4.880;2023-06-10T06:53:21;8.60;;;6.27;;
17091;SDS011;8661;45.700;4.880;2023-06-10T06:55:48;9.17;;;6.00;;
17091;SDS011;8661;45.700;4.880;2023-06-10T06:58:15;10.67;;;6.37;;
17091;SDS011;8661;45.700;4.880;2023-06-10T07:00:41;8.70;;;5.80;;
17091;SDS011;8661;45.700;4.880;2023-06-10T07:03:10;11.00;;;6.60;;
17091;SDS011;8661;45.700;4.880;2023-06-10T07:05:37;6.50;;;5.87;;
17091;SDS011;8661;45.700;4.880;2023-06-10T07:08:04;8.13;;;6.23;;
17091;SDS011;8661;45.700;4.880;2023-06-10T07:10:31;10.37;;;6.33;;
17091;SDS011;8661;45.700;4.880;2023-06-10T07:12:58;9.43;;;6.53;;
17091;SDS011;8661;45.700;4.880;2023-06-10T07:15:25;8.00;;;6.70;;
17091;SDS011;8661;45.700;4.880;2023-06-10T07:17:52;8.83;;;6.60;;
17091;SDS011;8661;45.700;4.880;2023-06-10T07:20:21;11.73;;;6.60;;
17091;SDS011;8661;45.700;4.880;2023-06-10T07:22:48;11.23;;;5.77;;
17091;SDS011;8661;45.700;4.880;2023-06-10T07:25:15;7.50;;;6.17;;
17091;SDS011;8661;45.700;4.880;2023-06-10T07:27:42;7.30;;;5.97;;
17091;SDS011;8661;45.700;4.880;2023-06-10T07:30:09;8.07;;;5.40;;
17091;SDS011;8661;45.700;4.880;2023-06-10T07:32:36;8.67;;;5.70;;
17091;SDS011;8661;45.700;4.880;2023-06-10T07:35:05;8.67;;;6.20;;
17091;SDS011;8661;45.700;4.880;2023-06-10T07:37:35;6.10;;;5.43;;
17091;SDS011;8661;45.700;4.880;2023-06-10T07:40:02;9.10;;;6.53;;
17091;SDS011;8661;45.700;4.880;2023-06-10T07:42:30;7.50;;;5.27;;
17091;SDS011;8661;45.700;4.880;2023-06-10T07:44:58;7.43;;;6.00;;
17091;SDS011;8661;45.700;4.880;2023-06-10T07:47:25;10.77;;;5.83;;
17091;SDS011;8661;45.700;4.880;2023-06-10T07:49:56;7.23;;;5.33;;
17091;SDS011;8661;45.700;4.880;2023-06-10T07:52:22;7.60;;;5.63;;
17091;SDS011;8661;45.700;4.880;2023-06-10T07:54:52;7.27;;;5.43;;
17091;SDS011;8661;45.700;4.880;2023-06-10T07:57:19;7.23;;;5.10;;
17091;SDS011;8661;45.700;4.880;2023-06-10T07:59:46;7.13;;;5.53;;
17091;SDS011;8661;45.700;4.880;2023-06-10T08:02:13;6.27;;;5.00;;
17091;SDS011;8661;45.700;4.880;2023-06-10T08:04:40;6.77;;;5.70;;
17091;SDS011;8661;45.700;4.880;2023-06-10T08:07:07;5.93;;;5.10;;
17091;SDS011;8661;45.700;4.880;2023-06-10T08:09:34;8.87;;;6.03;;
17091;SDS011;8661;45.700;4.880;2023-06-10T08:12:03;6.73;;;5.10;;
17091;SDS011;8661;45.700;4.880;2023-06-10T08:14:30;8.90;;;5.23;;
17091;SDS011;8661;45.700;4.880;2023-06-10T08:16:57;7.03;;;4.40;;
17091;SDS011;8661;45.700;4.880;2023-06-10T08:19:25;6.70;;;4.27;;
17091;SDS011;8661;45.700;4.880;2023-06-10T08:21:52;6.17;;;4.50;;
17091;SDS011;8661;45.700;4.880;2023-06-10T08:24:19;7.97;;;5.13;;
17091;SDS011;8661;45.700;4.880;2023-06-10T08:26:46;4.13;;;3.73;;
17091;SDS011;8661;45.700;4.880;2023-06-10T08:29:15;7.20;;;4.10;;
17091;SDS011;8661;45.700;4.880;2023-06-10T08:31:42;8.40;;;4.73;;
17091;SDS011;8661;45.700;4.880;2023-06-10T08:34:10;5.77;;;3.80;;
17091;SDS011;8661;45.700;4.880;2023-06-10T08:36:37;9.73;;;5.07;;
17091;SDS011;8661;45.700;4.880;2023-06-10T08:39:04;11.20;;;5.00;;
17091;SDS011;8661;45.700;4.880;2023-06-10T08:41:32;7.37;;;4.13;;
17091;SDS011;8661;45.700;4.880;2023-06-10T08:44:04;5.47;;;3.70;;
17091;SDS011;8661;45.700;4.880;2023-06-10T08:46:37;6.03;;;3.70;;
17091;SDS011;8661;45.700;4.880;2023-06-10T08:49:08;6.53;;;4.00;;
17091;SDS011;8661;45.700;4.880;2023-06-10T08:51:36;4.43;;;3.60;;
17091;SDS011;8661;45.700;4.880;2023-06-10T08:54:05;4.07;;;3.63;;
17091;SDS011;8661;45.700;4.880;2023-06-10T08:56:37;8.07;;;3.80;;
17091;SDS011;8661;45.700;4.880;2023-06-10T08:59:06;4.57;;;4.03;;
17091;SDS011;8661;45.700;4.880;2023-06-10T09:01:34;4.73;;;3.27;;
17091;SDS011;8661;45.700;4.880;2023-06-10T09:04:03;4.20;;;3.73;;
17091;SDS011;8661;45.700;4.880;2023-06-10T09:06:31;4.37;;;3.43;;
17091;SDS011;8661;45.700;4.880;2023-06-10T09:08:59;6.72;;;3.90;;
17091;SDS011;8661;45.700;4.880;2023-06-10T09:11:26;4.60;;;3.97;;
17091;SDS011;8661;45.700;4.880;2023-06-10T09:13:53;7.43;;;4.20;;
17091;SDS011;8661;45.700;4.880;2023-06-10T09:16:20;6.10;;;3.92;;
17091;SDS011;8661;45.700;4.880;2023-06-10T09:18:47;7.60;;;3.70;;
17091;SDS011;8661;45.700;4.880;2023-06-10T09:21:21;8.18;;;4.22;;
17091;SDS011;8661;45.700;4.880;2023-06-10T09:23:48;5.10;;;4.07;;
17091;SDS011;8661;45.700;4.880;2023-06-10T09:26:15;6.60;;;4.30;;
17091;SDS011;8661;45.700;4.880;2023-06-10T09:28:42;5.32;;;3.90;;
17091;SDS011;8661;45.700;4.880;2023-06-10T09:31:11;5.10;;;3.38;;
17091;SDS011;8661;45.700;4.880;2023-06-10T09:33:39;5.93;;;3.63;;
17091;SDS011;8661;45.700;4.880;2023-06-10T09:36:06;7.63;;;3.15;;
17091;SDS011;8661;45.700;4.880;2023-06-10T09:38:34;3.40;;;3.10;;
17091;SDS011;8661;45.700;4.880;2023-06-10T09:41:02;4.28;;;3.53;;
17091;SDS011;8661;45.700;4.880;2023-06-10T09:43:39;5.68;;;4.47;;
17091;SDS011;8661;45.700;4.880;2023-06-10T09:46:13;4.78;;;3.50;;
17091;SDS011;8661;45.700;4.880;2023-06-10T09:48:42;4.40;;;4.00;;
17091;SDS011;8661;45.700;4.880;2023-06-10T09:51:10;4.68;;;4.28;;
17091;SDS011;8661;45.700;4.880;2023-06-10T09:53:40;5.13;;;4.10;;
17091;SDS011;8661;45.700;4.880;2023-06-10T09:56:07;7.30;;;4.50;;
17091;SDS011;8661;45.700;4.880;2023-06-10T09:58:34;7.63;;;4.30;;
17091;SDS011;8661;45.700;4.880;2023-06-10T10:01:05;6.15;;;4.43;;
17091;SDS011;8661;45.700;4.880;2023-06-10T10:03:33;4.55;;;4.15;;
17091;SDS011;8661;45.700;4.880;2023-06-10T10:06:00;5.65;;;3.78;;
17091;SDS011;8661;45.700;4.880;2023-06-10T10:08:27;4.28;;;3.88;;
17091;SDS011;8661;45.700;4.880;2023-06-10T10:10:56;4.60;;;3.90;;
17091;SDS011;8661;45.700;4.880;2023-06-10T10:13:24;4.00;;;3.60;;
17091;SDS011;8661;45.700;4.880;2023-06-10T10:15:54;6.00;;;3.85;;
17091;SDS011;8661;45.700;4.880;2023-06-10T10:18:23;7.07;;;3.90;;
17091;SDS011;8661;45.700;4.880;2023-06-10T10:20:55;4.20;;;3.80;;
17091;SDS011;8661;45.700;4.880;2023-06-10T10:23:33;6.10;;;4.30;;
17091;SDS011;8661;45.700;4.880;2023-06-10T10:26:07;5.53;;;3.88;;
17091;SDS011;8661;45.700;4.880;2023-06-10T10:28:38;3.40;;;3.10;;
17091;SDS011;8661;45.700;4.880;2023-06-10T10:31:10;4.55;;;3.58;;
17091;SDS011;8661;45.700;4.880;2023-06-10T10:33:43;4.43;;;3.38;;
17091;SDS011;8661;45.700;4.880;2023-06-10T10:36:17;3.42;;;3.13;;
17091;SDS011;8661;45.700;4.880;2023-06-10T10:38:45;4.32;;;3.00;;
17091;SDS011;8661;45.700;4.880;2023-06-10T10:41:15;3.90;;;3.42;;
17091;SDS011;8661;45.700;4.880;2023-06-10T10:43:44;5.72;;;3.25;;
17091;SDS011;8661;45.700;4.880;2023-06-10T10:46:12;5.55;;;3.38;;
17091;SDS011;8661;45.700;4.880;2023-06-10T10:48:40;6.22;;;2.92;;
17091;SDS011;8661;45.700;4.880;2023-06-10T10:51:09;3.80;;;3.45;;
17091;SDS011;8661;45.700;4.880;2023-06-10T10:53:36;3.60;;;3.30;;
17091;SDS011;8661;45.700;4.880;2023-06-10T10:56:04;2.95;;;2.70;;
17091;SDS011;8661;45.700;4.880;2023-06-10T10:58:35;4.03;;;2.85;;
17091;SDS011;8661;45.700;4.880;2023-06-10T11:01:09;3.30;;;2.50;;
17091;SDS011;8661;45.700;4.880;2023-06-10T11:03:42;3.40;;;2.70;;
17091;SDS011;8661;45.700;4.880;2023-06-10T11:06:12;4.05;;;2.60;;
17091;SDS011;8661;45.700;4.880;2023-06-10T11:08:46;3.40;;;2.70;;
17091;SDS011;8661;45.700;4.880;2023-06-10T11:11:19;4.55;;;3.28;;
17091;SDS011;8661;45.700;4.880;2023-06-10T11:13:59;6.93;;;4.10;;
17091;SDS011;8661;45.700;4.880;2023-06-10T11:16:38;7.40;;;5.50;;
17091;SDS011;8661;45.700;4.880;2023-06-10T11:19:07;4.15;;;3.28;;
17091;SDS011;8661;45.700;4.880;2023-06-10T11:21:37;3.42;;;3.13;;
17091;SDS011;8661;45.700;4.880;2023-06-10T11:24:28;5.28;;;3.72;;
17091;SDS011;8661;45.700;4.880;2023-06-10T11:29:57;2.92;;;2.63;;
17091;SDS011;8661;45.700;4.880;2023-06-10T11:32:43;5.35;;;3.03;;
17091;SDS011;8661;45.700;4.880;2023-06-10T11:35:10;3.72;;;3.08;;
17091;SDS011;8661;45.700;4.880;2023-06-10T11:37:39;3.58;;;3.28;;
17091;SDS011;8661;45.700;4.880;2023-06-10T11:40:06;5.28;;;4.20;;
17091;SDS011;8661;45.700;4.880;2023-06-10T11:42:38;3.80;;;3.35;;
17091;SDS011;8661;45.700;4.880;2023-06-10T11:45:09;4.13;;;3.30;;
17091;SDS011;8661;45.700;4.880;2023-06-10T11:47:42;3.38;;;2.85;;
17091;SDS011;8661;45.700;4.880;2023-06-10T11:50:27;3.05;;;2.85;;
17091;SDS011;8661;45.700;4.880;2023-06-10T11:52:55;4.88;;;3.25;;
17091;SDS011;8661;45.700;4.880;2023-06-10T11:55:23;4.43;;;3.53;;
17091;SDS011;8661;45.700;4.880;2023-06-10T11:57:51;2.83;;;2.50;;
17091;SDS011;8661;45.700;4.880;2023-06-10T12:00:24;5.75;;;3.03;;
17091;SDS011;8661;45.700;4.880;2023-06-10T12:02:55;3.30;;;2.50;;
17091;SDS011;8661;45.700;4.880;2023-06-10T12:05:24;3.20;;;2.55;;
17091;SDS011;8661;45.700;4.880;2023-06-10T12:10:40;3.35;;;3.05;;
17091;SDS011;8661;45.700;4.880;2023-06-10T12:13:08;5.07;;;3.60;;
17091;SDS011;8661;45.700;4.880;2023-06-10T12:15:36;3.63;;;2.83;;
17091;SDS011;8661;45.700;4.880;2023-06-10T12:18:03;2.92;;;2.70;;
17091;SDS011;8661;45.700;4.880;2023-06-10T12:20:31;4.50;;;2.65;;
17091;SDS011;8661;45.700;4.880;2023-06-10T12:22:59;3.70;;;2.75;;
17091;SDS011;8661;45.700;4.880;2023-06-10T12:25:27;4.53;;;2.20;;
17091;SDS011;8661;45.700;4.880;2023-06-10T12:27:55;7.55;;;3.80;;
17091;SDS011;8661;45.700;4.880;2023-06-10T12:30:24;8.40;;;3.03;;
17091;SDS011;8661;45.700;4.880;2023-06-10T12:32:55;6.22;;;2.53;;
17091;SDS011;8661;45.700;4.880;2023-06-10T12:35:23;6.43;;;2.00;;
17091;SDS011;8661;45.700;4.880;2023-06-10T12:37:54;5.47;;;2.47;;
17091;SDS011;8661;45.700;4.880;2023-06-10T12:40:28;3.08;;;2.15;;
17091;SDS011;8661;45.700;4.880;2023-06-10T12:42:56;3.80;;;2.30;;
17091;SDS011;8661;45.700;4.880;2023-06-10T12:45:27;5.35;;;2.65;;
17091;SDS011;8661;45.700;4.880;2023-06-10T12:48:05;5.93;;;3.10;;
17091;SDS011;8661;45.700;4.880;2023-06-10T12:50:34;0.20;;;0.20;;
17091;SDS011;8661;45.700;4.880;2023-06-10T12:53:02;0.10;;;0.10;;
17091;SDS011;8661;45.700;4.880;2023-06-10T12:55:29;0.10;;;0.10;;
17091;SDS011;8661;45.700;4.880;2023-06-10T12:57:56;0.10;;;0.10;;
17091;SDS011;8661;45.700;4.880;2023-06-10T13:00:23;0.00;;;0.00;;
17091;SDS011;8661;45.700;4.880;2023-06-10T13:02:53;0.00;;;0.00;;
17091;SDS011;8661;45.700;4.880;2023-06-10T13:05:21;0.00;;;0.00;;
17091;SDS011;8661;45.700;4.880;2023-06-10T13:07:48;0.03;;;0.03;;
17091;SDS011;8661;45.700;4.880;2023-06-10T13:10:15;0.00;;;0.00;;
17091;SDS011;8661;45.700;4.880;2023-06-10T13:12:43;0.00;;;0.00;;
17091;SDS011;8661;45.700;4.880;2023-06-10T13:15:11;0.00;;;0.00;;
17091;SDS011;8661;45.700;4.880;2023-06-10T13:17:39;0.10;;;0.10;;
17091;SDS011;8661;45.700;4.880;2023-06-10T13:20:07;0.00;;;0.00;;
17091;SDS011;8661;45.700;4.880;2023-06-10T13:22:36;0.07;;;0.07;;
17091;SDS011;8661;45.700;4.880;2023-06-10T13:25:03;0.00;;;0.00;;
17091;SDS011;8661;45.700;4.880;2023-06-10T13:27:32;0.00;;;0.00;;
17091;SDS011;8661;45.700;4.880;2023-06-10T13:29:59;0.10;;;0.10;;
17091;SDS011;8661;45.700;4.880;2023-06-10T13:32:26;0.20;;;0.20;;
17091;SDS011;8661;45.700;4.880;2023-06-10T13:34:53;0.00;;;0.00;;
17091;SDS011;8661;45.700;4.880;2023-06-10T13:37:20;0.00;;;0.00;;
17091;SDS011;8661;45.700;4.880;2023-06-10T13:39:48;0.00;;;0.00;;
17091;SDS011;8661;45.700;4.880;2023-06-10T13:42:16;0.00;;;0.00;;
17091;SDS011;8661;45.700;4.880;2023-06-10T13:44:43;0.00;;;0.00;;
17091;SDS011;8661;45.700;4.880;2023-06-10T13:47:10;1.67;;;1.50;;
17091;SDS011;8661;45.700;4.880;2023-06-10T13:49:37;3.27;;;2.37;;
17091;SDS011;8661;45.700;4.880;2023-06-10T13:52:04;2.70;;;2.20;;
17091;SDS011;8661;45.700;4.880;2023-06-10T13:54:31;2.77;;;2.30;;
17091;SDS011;8661;45.700;4.880;2023-06-10T13:57:00;2.90;;;2.37;;
17091;SDS011;8661;45.700;4.880;2023-06-10T13:59:30;5.30;;;2.30;;
17091;SDS011;8661;45.700;4.880;2023-06-10T14:01:56;2.90;;;2.03;;
17091;SDS011;8661;45.700;4.880;2023-06-10T14:04:23;1.87;;;1.77;;
17091;SDS011;8661;45.700;4.880;2023-06-10T14:06:50;6.03;;;2.00;;
17091;SDS011;8661;45.700;4.880;2023-06-10T14:09:17;2.97;;;2.10;;
17091;SDS011;8661;45.700;4.880;2023-06-10T14:11:44;2.13;;;1.43;;
17091;SDS011;8661;45.700;4.880;2023-06-10T14:14:13;3.40;;;1.80;;
17091;SDS011;8661;45.700;4.880;2023-06-10T14:16:41;2.50;;;2.00;;
17091;SDS011;8661;45.700;4.880;2023-06-10T14:19:08;2.23;;;1.77;;
17091;SDS011;8661;45.700;4.880;2023-06-10T14:21:34;3.70;;;1.53;;
17091;SDS011;8661;45.700;4.880;2023-06-10T14:24:01;2.20;;;1.97;;
17091;SDS011;8661;45.700;4.880;2023-06-10T14:26:28;3.30;;;2.20;;
17091;SDS011;8661;45.700;4.880;2023-06-10T14:28:57;4.53;;;2.13;;
17091;SDS011;8661;45.700;4.880;2023-06-10T14:31:25;1.77;;;1.53;;
17091;SDS011;8661;45.700;4.880;2023-06-10T14:33:52;2.13;;;1.30;;
17091;SDS011;8661;45.700;4.880;2023-06-10T14:36:19;2.57;;;2.00;;
17091;SDS011;8661;45.700;4.880;2023-06-10T14:38:45;2.43;;;1.70;;
17091;SDS011;8661;45.700;4.880;2023-06-10T14:41:12;4.50;;;2.20;;
17091;SDS011;8661;45.700;4.880;2023-06-10T14:43:39;3.27;;;1.90;;
17091;SDS011;8661;45.700;4.880;2023-06-10T14:46:06;2.03;;;1.70;;
17091;SDS011;8661;45.700;4.880;2023-06-10T14:48:35;2.50;;;1.80;;
17091;SDS011;8661;45.700;4.880;2023-06-10T14:51:01;5.00;;;1.77;;
17091;SDS011;8661;45.700;4.880;2023-06-10T14:53:28;1.90;;;1.70;;
17091;SDS011;8661;45.700;4.880;2023-06-10T14:55:55;3.23;;;2.40;;
17091;SDS011;8661;45.700;4.880;2023-06-10T14:58:22;3.33;;;2.40;;
17091;SDS011;8661;45.700;4.880;2023-06-10T15:00:49;3.83;;;2.73;;
17091;SDS011;8661;45.700;4.880;2023-06-10T15:03:16;2.17;;;2.00;;
17091;SDS011;8661;45.700;4.880;2023-06-10T15:05:45;4.20;;;2.47;;
17091;SDS011;8661;45.700;4.880;2023-06-10T15:08:12;3.17;;;1.93;;
17091;SDS011;8661;45.700;4.880;2023-06-10T15:10:39;3.03;;;2.00;;
17091;SDS011;8661;45.700;4.880;2023-06-10T15:13:06;2.00;;;1.80;;